Ana Sayfa
METAR-TAF:

METAR-TAF

Havaalanları :

Pottstown Limerick Airport

Pottstown, Pensilvanya, Amerika Birleşik Devletleri

Enlem: 40-14-18N, Boylam: 075-33-26W, yükseklik: 89 m

Güncel hava durumu gözlemi

Rapor saat 13:54 UTC de 15 dakika önce yapıldı.
Rüzgar doğu/güneydoğudan 3 kt
Sıcaklık 16°C
Nem 94%
Basınç 1013 hPa
Görüş mesafesi: 2.4 km
6500 ft yükseklikte parçalı bulutlu
9000 ft yükseklikte çok bulutlu
civarda gök gürültülü fırtına, yağmur, Pus

METAR: KPTW 281354Z AUTO 12003KT 1 1/2SM VCTS RA BR SCT065 OVC090 16/15 A2991 RMK AO2 LTG DSNT NE AND E AND SW RAB18 TSB21E41 SLP124 P0015 T01560150

Saat: 10:09 (14:09 UTC)


TAF: eksik

4.000'den fazla havaalanı için hava durumu gözlemleri ve tahminleri (METAR ve TAF raporları).

Kullanılabilir istasyonlar harita üzerinde sarı ve kırmızı noktalarla gösterilir.

İstasyonun adını görmek için fareyi noktanın üzerinde gezdirin.

Sonrasında hava gözlem ve tahminlerini görmek için tıklayın.

Haritayı değiştirmek için: yaklaştırmak için siyah artı işaretli yeşil düğmeye ve uzaklaştırmak için de eksi işaretli düğmeye hızla tıklayın; bitişik haritalar için yeşil okları kullanın.


METAR-TAF: